M I D A S
Marine Information and Data Acquisition System
Tripno 1187 of the Zeeleeuw from 2006-11-22 07:29:31 to 2006-11-22 16:52:26
Back to CruiseResearch ActivitiesStationsMapUnderway DataData graphs

EquipmentUnitsComment
TimeDGPSUTC
LatitudeDGPSDM.mWGS84
LongitudeDGPSDM.mWGS84
HeadingGyrodeg 
SOGDGPSknotsSpeed over ground
COGDGPSdegCourse over ground
DepthEcho soundermeters200 kHz
Missing or incorrect values are displayed as -999
Navigation data collected by the RV Zeeleeuw from 2006-11-22 07:19:05 to 2006-11-22 17:03:09
Time Latitude Longitude Heading SOG COG Depth
2006-11-22 07:20:11 51°13.611 2°56.027 110 3.7 288 -999
2006-11-22 07:21:12 51°13.643 2°55.914 123.6 5.1 299 -999
2006-11-22 07:22:11 51°13.693 2°55.797 129.2 5.1 306 10
2006-11-22 07:23:10 51°13.726 2°55.712 110.3 1.5 303 10.3
2006-11-22 07:24:10 51°13.74 2°55.735 46.9 0.3 350 9.2
2006-11-22 07:25:10 51°13.723 2°55.709 31.8 0.9 238 10.6
2006-11-22 07:26:10 51°13.773 2°55.678 338.5 6.2 334 9.2
2006-11-22 07:27:10 51°13.899 2°55.584 341.1 9.3 336 9.3
2006-11-22 07:28:10 51°14.035 2°55.487 341.6 8.3 337 9.3
2006-11-22 07:29:11 51°14.161 2°55.392 337.3 8.5 332 10
2006-11-22 07:30:10 51°14.27 2°55.249 316.1 8.7 312 9.5
2006-11-22 07:31:10 51°14.377 2°55.067 319.9 9.8 316 9.5
2006-11-22 07:32:10 51°14.525 2°54.946 353.7 10.5 350 8.5
2006-11-22 07:33:10 51°14.708 2°54.95 12.3 11.2 5 8.1
2006-11-22 07:34:10 51°14.905 2°54.958 5.7 12.3 357 7.9
2006-11-22 07:35:10 51°15.108 2°54.895 350.9 12.1 342 7.2
2006-11-22 07:36:10 51°15.29 2°54.742 341.7 12.5 332 7.7
2006-11-22 07:37:10 51°15.48 2°54.581 342.2 12.8 331 8.5
2006-11-22 07:38:10 51°15.669 2°54.406 337.8 13.3 325 9.2
2006-11-22 07:39:10 51°15.841 2°54.184 331.8 13.4 321 9.6
2006-11-22 07:40:10 51°16.007 2°53.958 331.2 13.1 321 10
2006-11-22 07:41:10 51°16.174 2°53.73 331.3 13.1 320 10.5
2006-11-22 07:42:10 51°16.343 2°53.511 332 12.9 322 11
2006-11-22 07:43:10 51°16.51 2°53.298 333.7 12.9 322 10.8
2006-11-22 07:44:10 51°16.681 2°53.097 334.2 12.6 324 10.3
2006-11-22 07:45:10 51°16.849 2°52.898 333.2 12.3 322 8.1
2006-11-22 07:46:10 51°17.015 2°52.702 334.6 12.7 325 9.1
2006-11-22 07:47:10 51°17.205 2°52.58 358.1 12.1 351 8.3
2006-11-22 07:48:10 51°17.404 2°52.513 0.7 12.5 350 9.7
2006-11-22 07:49:10 51°17.609 2°52.482 6.2 12.5 356 9.5
2006-11-22 07:50:10 51°17.814 2°52.456 5.5 12.3 357 9.7
2006-11-22 07:51:10 51°18.006 2°52.535 38.6 12.2 30 10.2
2006-11-22 07:52:10 51°18.174 2°52.726 46 12.5 43 9.8
2006-11-22 07:53:10 51°18.327 2°52.949 47.2 12.4 37 10.2
2006-11-22 07:54:10 51°18.479 2°53.18 51.2 12.6 44 10.4
2006-11-22 07:55:10 51°18.636 2°53.401 46.9 12.3 41 10.7
2006-11-22 07:56:10 51°18.794 2°53.616 46.1 12.3 45 11
2006-11-22 07:57:10 51°18.951 2°53.826 48.3 12.4 41 10.9
2006-11-22 07:58:11 51°19.11 2°54.042 46.3 12.7 43 11.2
2006-11-22 07:59:10 51°19.256 2°54.26 49.5 11.9 44 11.6
2006-11-22 08:00:10 51°19.411 2°54.473 41.8 12.3 35 11.6
2006-11-22 08:01:10 51°19.577 2°54.665 42.1 12.4 34 11.7
2006-11-22 08:02:10 51°19.743 2°54.855 46.2 12.4 35 12
2006-11-22 08:03:10 51°19.907 2°55.052 42.5 12.2 37 12
2006-11-22 08:04:09 51°20.071 2°55.244 43.6 12.8 37 12.3
2006-11-22 08:05:10 51°20.236 2°55.445 44.8 12.1 38 12.6
2006-11-22 08:06:10 51°20.402 2°55.643 45.1 12.6 35 12.3
2006-11-22 08:07:10 51°20.561 2°55.852 47 12.2 39 12.9
2006-11-22 08:08:10 51°20.713 2°56.068 46.9 12.4 44 12.9
2006-11-22 08:09:10 51°20.869 2°56.281 47.5 12.1 42 13.1
2006-11-22 08:10:10 51°21.027 2°56.5 45 12.6 43 13.2
2006-11-22 08:11:10 51°21.184 2°56.715 46.4 12.6 42 13.5
2006-11-22 08:12:10 51°21.342 2°56.929 45 12.4 37 13.4
2006-11-22 08:13:10 51°21.487 2°57.157 48.4 12.2 48 13.9
2006-11-22 08:14:10 51°21.636 2°57.386 53.2 12.5 48 13.9
2006-11-22 08:15:10 51°21.776 2°57.621 53.7 12.1 55 14.4
2006-11-22 08:16:10 51°21.85 2°57.836 74.4 6.3 73 14.3
2006-11-22 08:17:10 51°21.854 2°57.954 87.6 3.5 94 14
2006-11-22 08:18:10 51°21.862 2°58.011 57.4 1.6 71 14.1
2006-11-22 08:19:10 51°21.87 2°58.037 43.2 0.7 56 13.9
2006-11-22 08:20:10 51°21.874 2°58.048 30.9 0.5 74 14.1
2006-11-22 08:21:10 51°21.873 2°58.047 14.3 0.2 151 14
2006-11-22 08:22:10 51°21.866 2°58.047 10.3 0.5 175 13.8
2006-11-22 08:23:10 51°21.854 2°58.044 9.9 0.8 171 13.8
2006-11-22 08:24:10 51°21.84 2°58.043 13.4 1 180 13.5
2006-11-22 08:25:10 51°21.823 2°58.042 14.6 1.1 182 13.7
2006-11-22 08:26:10 51°21.806 2°58.041 18.3 1.1 175 14.1
2006-11-22 08:27:10 51°21.806 2°58.046 20.7 1.8 16 13.5
2006-11-22 08:28:10 51°21.865 2°58.067 25.3 4.6 20 14.1
2006-11-22 08:29:10 51°21.916 2°58.137 54.3 3.9 54 14.1
2006-11-22 08:30:10 51°21.925 2°58.226 88.5 2.9 97 14.2
2006-11-22 08:31:10 51°21.901 2°58.284 123.9 2.5 143 13.8
2006-11-22 08:32:10 51°21.863 2°58.306 160.4 2.5 174 13.4
2006-11-22 08:33:10 51°21.822 2°58.299 190.8 2.7 191 13.5
2006-11-22 08:34:10 51°21.778 2°58.272 213.5 2.8 210 13.4
2006-11-22 08:35:10 51°21.742 2°58.234 230.8 2.4 218 13.4
2006-11-22 08:36:10 51°21.705 2°58.191 229.3 3.1 218 13.6
2006-11-22 08:37:10 51°21.665 2°58.137 232 3.1 215 13.2
2006-11-22 08:38:10 51°21.627 2°58.079 238 3.2 226 13.5
2006-11-22 08:39:10 51°21.592 2°58.029 236.4 2.5 220 13.5
2006-11-22 08:40:10 51°21.562 2°57.982 243 2.3 230 13.5
2006-11-22 08:41:10 51°21.537 2°57.934 252.7 2.4 229 13
2006-11-22 08:42:10 51°21.516 2°57.868 267.8 2.6 246 13.2
2006-11-22 08:43:10 51°21.508 2°57.801 294.8 2.5 267 13.5
2006-11-22 08:44:10 51°21.512 2°57.763 321 0.7 295 13.4
2006-11-22 08:45:10 51°21.523 2°57.75 355.5 2.2 342 13.9
2006-11-22 08:46:10 51°21.585 2°57.751 15.8 4.9 10 13.9
2006-11-22 08:47:10 51°21.648 2°57.761 7.9 2.6 359 14.3
2006-11-22 08:48:10 51°21.679 2°57.747 345.5 2 324 14.2
2006-11-22 08:49:10 51°21.699 2°57.7 307.1 2.3 290 14.4
2006-11-22 08:50:10 51°21.689 2°57.627 243.6 3.7 234 14.5
2006-11-22 08:51:10 51°21.627 2°57.604 155.4 4.3 164 14.1
2006-11-22 08:52:10 51°21.566 2°57.709 115.8 6.5 120 13.6
2006-11-22 08:53:10 51°21.57 2°57.842 49.3 3.6 45 13.5
2006-11-22 08:54:10 51°21.613 2°57.891 45.3 3.5 46 13.8
2006-11-22 08:55:10 51°21.653 2°57.963 53.2 3.2 57 13.7
2006-11-22 08:56:10 51°21.659 2°58.03 84.9 2.3 97 13.8
2006-11-22 08:57:10 51°21.654 2°58.086 78.7 2 99 13.6
2006-11-22 08:58:10 51°21.648 2°58.144 86.4 2.6 105 13.5
2006-11-22 08:59:10 51°21.635 2°58.215 97.4 2.9 105 13.5
2006-11-22 09:00:10 51°21.63 2°58.279 64.8 2 81 13
2006-11-22 09:01:10 51°21.652 2°58.317 29.7 2.2 25 13.7
2006-11-22 09:02:10 51°21.69 2°58.311 351.8 2.7 336 13.4
2006-11-22 09:03:10 51°21.728 2°58.265 326.5 2.9 310 13.4
2006-11-22 09:04:10 51°21.748 2°58.19 296.1 3.2 277 13.6
2006-11-22 09:05:10 51°21.746 2°58.11 276.6 3 255 13.7
2006-11-22 09:06:10 51°21.73 2°58.037 264.1 3.1 246 14
2006-11-22 09:07:11 51°21.699 2°57.957 240.7 3.5 228 13.5
2006-11-22 09:08:10 51°21.645 2°57.899 211.7 4.2 208 14.4
2006-11-22 09:09:10 51°21.573 2°57.869 182.9 4.5 186 13.6
2006-11-22 09:10:10 51°21.503 2°57.894 149.5 4.2 156 13.9
2006-11-22 09:11:10 51°21.455 2°57.966 105.5 3.5 113 13.4
2006-11-22 09:12:10 51°21.46 2°58.045 56.6 2.9 55 13.2
2006-11-22 09:13:10 51°21.499 2°58.082 20 2.9 14 13.1
2006-11-22 09:14:11 51°21.549 2°58.104 23.6 3.3 19 13.6
2006-11-22 09:15:10 51°21.595 2°58.132 26.3 3.1 20 13.4
2006-11-22 09:16:10 51°21.643 2°58.168 37 3.3 33 13.6
2006-11-22 09:17:10 51°21.678 2°58.238 63 3.6 64 13.7
2006-11-22 09:18:10 51°21.707 2°58.32 54.2 3.5 58 13.6
2006-11-22 09:19:10 51°21.725 2°58.41 78.1 3.7 80 13.6
2006-11-22 09:20:10 51°21.728 2°58.51 88 3.9 93 13
2006-11-22 09:21:10 51°21.701 2°58.607 117.6 4.2 128 13.2
2006-11-22 09:22:10 51°21.64 2°58.664 162.5 4.3 173 12.8
2006-11-22 09:23:10 51°21.566 2°58.652 193.6 4.7 195 12.8
2006-11-22 09:24:10 51°21.507 2°58.595 233.8 3.6 223 12.8
2006-11-22 09:25:10 51°21.474 2°58.553 234.2 1.6 219 12.7
2006-11-22 09:26:10 51°21.452 2°58.539 223.3 1.1 193 12.9
2006-11-22 09:27:10 51°21.431 2°58.533 211.6 2.1 205 12.8
2006-11-22 09:28:10 51°21.392 2°58.483 247.5 3.4 238 12.9
2006-11-22 09:29:11 51°21.385 2°58.386 296.4 4.2 284 12.7
2006-11-22 09:30:10 51°21.423 2°58.306 327.7 4.2 317 13.1
2006-11-22 09:31:10 51°21.469 2°58.229 323.9 3.7 312 13.4
2006-11-22 09:32:10 51°21.506 2°58.17 333.8 2.8 322 13.5
2006-11-22 09:33:10 51°21.534 2°58.135 337.8 1.7 327 13.4
2006-11-22 09:34:10 51°21.559 2°58.104 335.3 1.9 318 13.2
2006-11-22 09:35:10 51°21.584 2°58.074 349.8 1.9 339 13.9
2006-11-22 09:36:10 51°21.629 2°58.083 20.4 3.4 14 13.8
2006-11-22 09:37:10 51°21.685 2°58.107 26.6 3.5 21 13.7
2006-11-22 09:38:10 51°21.729 2°58.125 12.1 2.6 5 13.9
2006-11-22 09:39:11 51°21.77 2°58.123 7.1 2.4 354 14.4
2006-11-22 09:40:10 51°21.805 2°58.103 344.7 2.4 326 14.3
2006-11-22 09:41:10 51°21.83 2°58.061 320 2.1 304 14.3
2006-11-22 09:42:10 51°21.842 2°58.009 300.5 2.4 280 14.6
2006-11-22 09:43:10 51°21.832 2°57.945 258.3 3 237 14.7
2006-11-22 09:44:10 51°21.785 2°57.885 209.1 4.1 207 14.2
2006-11-22 09:45:10 51°21.716 2°57.857 185 4.6 185 14.6
2006-11-22 09:46:10 51°21.642 2°57.864 168.3 4 175 14
2006-11-22 09:47:10 51°21.582 2°57.867 174.9 3.4 180 14.1
2006-11-22 09:48:10 51°21.534 2°57.869 168.9 2.8 178 13.9
2006-11-22 09:49:10 51°21.491 2°57.879 155.2 2.5 168 14.1
2006-11-22 09:50:10 51°21.454 2°57.913 118.9 2.6 135 13.8
2006-11-22 09:51:10 51°21.448 2°57.978 64.5 2.9 76 13.7
2006-11-22 09:52:10 51°21.483 2°58.036 31.8 3.2 29 13.9
2006-11-22 09:53:10 51°21.537 2°58.067 25.8 3.5 19 13.2
2006-11-22 09:54:10 51°21.593 2°58.094 16.9 3.6 8 14
2006-11-22 09:55:10 51°21.649 2°58.12 22.3 3.6 16 14.5
2006-11-22 09:56:10 51°21.706 2°58.152 27.2 3.7 21 14.2
2006-11-22 09:57:10 51°21.756 2°58.202 46.3 3.5 46 14.4
2006-11-22 09:58:10 51°21.771 2°58.296 85.2 3.9 93 14.2
2006-11-22 09:59:10 51°21.77 2°58.404 82.1 4.2 92 13.9
2006-11-22 10:00:10 51°21.744 2°58.503 122.8 3.9 132 13.5
2006-11-22 10:01:10 51°21.689 2°58.544 164.4 3.5 164 13.5
2006-11-22 10:02:10 51°21.627 2°58.534 200.6 4.1 199 13.3
2006-11-22 10:03:10 51°21.568 2°58.47 232.5 4.4 224 13.5
2006-11-22 10:04:10 51°21.519 2°58.386 236.6 4.4 224 13.8
2006-11-22 10:05:10 51°21.474 2°58.296 247.1 4.2 235 13.5
2006-11-22 10:06:10 51°21.447 2°58.21 270.2 3.6 251 13.5
2006-11-22 10:07:10 51°21.439 2°58.125 281.4 2.8 266 13.6
2006-11-22 10:08:11 51°21.443 2°58.047 294.1 3.1 283 14
2006-11-22 10:09:11 51°21.472 2°57.974 330.9 3.4 322 13.8
2006-11-22 10:10:10 51°21.508 2°57.962 6.6 1.6 352 14.1
2006-11-22 10:11:10 51°21.524 2°57.956 355.6 0.6 341 14.1
2006-11-22 10:12:10 51°21.526 2°57.953 348.3 0.2 171 14.3
2006-11-22 10:13:10 51°21.525 2°57.955 348 0.9 13 14
2006-11-22 10:14:10 51°21.541 2°57.895 280.8 3.8 269 14.5
2006-11-22 10:15:10 51°21.476 2°57.862 159.6 5.5 156 13.9
2006-11-22 10:16:10 51°21.451 2°57.957 70.9 3.1 73 14.2
2006-11-22 10:17:10 51°21.489 2°57.986 358.4 3.4 349 13.8
2006-11-22 10:18:10 51°21.56 2°57.982 13.7 4.6 17 14.2
2006-11-22 10:19:10 51°21.619 2°58.033 36.2 3.8 34 14.5
2006-11-22 10:20:11 51°21.666 2°58.08 38.4 3.1 36 14.3
2006-11-22 10:21:10 51°21.7 2°58.137 49.2 3 44 14.3
2006-11-22 10:22:11 51°21.729 2°58.201 51.5 3 57 14.2
2006-11-22 10:23:10 51°21.75 2°58.27 57.2 3 65 14.5
2006-11-22 10:24:10 51°21.779 2°58.329 44.2 2.8 49 14.4
2006-11-22 10:25:10 51°21.801 2°58.395 68.4 2.9 82 14.4
2006-11-22 10:26:10 51°21.792 2°58.472 111.1 3.1 117 14.2
2006-11-22 10:27:10 51°21.759 2°58.542 128 3.3 132 14.1
2006-11-22 10:28:10 51°21.708 2°58.585 167.2 3.5 164 13.7
2006-11-22 10:29:10 51°21.651 2°58.588 195.6 3.8 187 14.1
2006-11-22 10:30:10 51°21.554 2°58.575 174.1 7.5 175 13.6
2006-11-22 10:31:11 51°21.438 2°58.564 204 5.5 202 13.5
2006-11-22 10:32:10 51°21.383 2°58.498 249.5 3.4 238 13.8
2006-11-22 10:33:10 51°21.37 2°58.424 287.6 2.4 271 13.3
2006-11-22 10:34:11 51°21.392 2°58.374 332.2 2.7 326 13.8
2006-11-22 10:35:10 51°21.43 2°58.335 330.8 3 322 13.8
2006-11-22 10:36:11 51°21.464 2°58.283 320.1 2 316 14
2006-11-22 10:37:10 51°21.491 2°58.244 324.7 2.2 316 14.3
2006-11-22 10:38:10 51°21.522 2°58.225 351.5 2.6 345 14.5
2006-11-22 10:39:10 51°21.572 2°58.198 342.4 3.3 337 14
2006-11-22 10:40:10 51°21.619 2°58.16 340.7 3.1 336 14.5
2006-11-22 10:41:10 51°21.664 2°58.136 350.8 3 348 14.5
2006-11-22 10:42:10 51°21.718 2°58.12 349.4 3.1 346 14.6
2006-11-22 10:43:11 51°21.772 2°58.104 7 3.6 4 15.3
2006-11-22 10:44:10 51°21.822 2°58.084 330.5 3 320 15.1
2006-11-22 10:45:10 51°21.842 2°58.013 287.8 3 276 15.5
2006-11-22 10:46:10 51°21.825 2°57.938 243.9 3.3 225 15.4
2006-11-22 10:47:10 51°21.772 2°57.912 189.7 4 178 15.6
2006-11-22 10:48:10 51°21.708 2°57.954 140.7 4.1 136 15.3
2006-11-22 10:49:11 51°21.686 2°58.055 83.4 4 86 15
2006-11-22 10:50:10 51°21.694 2°58.165 81.2 4.3 85 14.7
2006-11-22 10:51:10 51°21.699 2°58.272 80.5 3.8 89 14.7
2006-11-22 10:52:10 51°21.698 2°58.374 100.1 4 105 14.9
2006-11-22 10:53:09 51°21.661 2°58.457 142.2 3.8 136 14.2
2006-11-22 10:54:10 51°21.604 2°58.508 168.6 3.7 161 14.1
2006-11-22 10:55:11 51°21.543 2°58.519 199.3 3.2 189 14
2006-11-22 10:56:10 51°21.503 2°58.494 240.9 2 204 14.1
2006-11-22 10:57:10 51°21.484 2°58.483 244 0.6 167 14.2
2006-11-22 10:58:10 51°21.467 2°58.476 256.3 2.1 232 14.5
2006-11-22 10:59:10 51°21.489 2°58.398 309.5 5.6 304 14.5
2006-11-22 11:00:11 51°21.539 2°58.21 297.5 8.4 292 14.6
2006-11-22 11:01:10 51°21.569 2°58.087 296.8 2.7 295 14.7
2006-11-22 11:02:10 51°21.578 2°58.059 304.8 0.7 309 15.1
2006-11-22 11:03:10 51°21.582 2°58.062 308.5 0.5 61 15
2006-11-22 11:04:10 51°21.582 2°58.083 326.3 1.1 109 15.1
2006-11-22 11:05:10 51°21.576 2°58.11 354.3 1 112 15
2006-11-22 11:06:11 51°21.568 2°58.138 11.2 1 119 15.1
2006-11-22 11:07:11 51°21.558 2°58.164 15.2 1.1 123 14.7
2006-11-22 11:08:10 51°21.549 2°58.189 19.4 1 115 14.9
2006-11-22 11:09:10 51°21.539 2°58.217 26.3 1.3 121 14.6
2006-11-22 11:10:11 51°21.539 2°58.248 18.9 2 44 14.9
2006-11-22 11:11:10 51°21.577 2°58.234 315 2.2 320 15
2006-11-22 11:12:11 51°21.608 2°58.173 306 3.7 310 15.4
2006-11-22 11:13:10 51°21.658 2°58.124 333.6 4.1 339 15.4
2006-11-22 11:14:10 51°21.719 2°58.084 332.8 3.4 339 15.8
2006-11-22 11:15:10 51°21.766 2°58.058 334.4 2.6 344 15.7
2006-11-22 11:16:11 51°21.81 2°58.04 333.8 2.9 344 15.9
2006-11-22 11:17:11 51°21.858 2°58.018 332.6 3 340 16.3
2006-11-22 11:18:10 51°21.897 2°57.982 308.4 2.4 315 16.7
2006-11-22 11:19:10 51°21.913 2°57.935 278.7 1.9 280 16.7
2006-11-22 11:20:10 51°21.896 2°57.897 227.2 2.1 197 16.3
2006-11-22 11:21:10 51°21.848 2°57.903 179.6 3.4 158 16.5
2006-11-22 11:22:10 51°21.792 2°57.957 158.4 3.9 143 16.3
2006-11-22 11:23:11 51°21.746 2°58.034 137.8 3.9 127 15.9
2006-11-22 11:24:10 51°21.709 2°58.112 150 3.4 135 15.7
2006-11-22 11:25:10 51°21.671 2°58.163 173.4 2.7 146 15.7
2006-11-22 11:26:10 51°21.63 2°58.188 188.8 2.7 159 15.3
2006-11-22 11:27:10 51°21.591 2°58.236 146.8 2.8 128 15.3
2006-11-22 11:28:11 51°21.575 2°58.301 111.2 2.6 103 15.3
2006-11-22 11:29:10 51°21.576 2°58.373 82.3 2.9 81 15.1
2006-11-22 11:30:11 51°21.598 2°58.459 43.1 4 55 14.9
2006-11-22 11:31:11 51°21.653 2°58.495 345.7 3.5 2 15.4
2006-11-22 11:32:10 51°21.7 2°58.464 303.4 2.6 319 15.4
2006-11-22 11:33:11 51°21.713 2°58.419 267.6 2.4 269 15.6
2006-11-22 11:34:10 51°21.7 2°58.348 259.8 3.2 257 15.6
2006-11-22 11:35:11 51°21.692 2°58.257 264.9 3.5 261 15.7
2006-11-22 11:36:10 51°21.674 2°58.179 249.5 3.1 240 15.9
2006-11-22 11:37:10 51°21.651 2°58.127 257.2 1.9 255 16.2
2006-11-22 11:38:11 51°21.675 2°58.09 328.7 2.9 348 16
2006-11-22 11:39:10 51°21.744 2°58.122 13 5.2 25 16.1
2006-11-22 11:40:10 51°21.811 2°58.186 29.4 4.5 40 15.9
2006-11-22 11:41:10 51°21.862 2°58.256 13.2 3.6 32 16.2
2006-11-22 11:42:11 51°21.911 2°58.28 335 2.6 6 16.5
2006-11-22 11:43:11 51°21.947 2°58.256 291.7 2.2 316 16.5
2006-11-22 11:44:10 51°21.945 2°58.204 238.7 2.4 222 16.9
2006-11-22 11:45:10 51°21.888 2°58.189 206.6 4.1 189 16.8
2006-11-22 11:46:11 51°21.823 2°58.152 212.1 4.3 194 16.5
2006-11-22 11:47:11 51°21.759 2°58.153 199.3 3.7 174 16.2
2006-11-22 11:48:10 51°21.702 2°58.157 203.9 3.5 177 16
2006-11-22 11:49:10 51°21.647 2°58.161 199.5 3.2 171 15.7
2006-11-22 11:50:10 51°21.602 2°58.223 142 4.2 117 16.2
2006-11-22 11:51:11 51°21.595 2°58.339 83.7 4.5 79 15.9
2006-11-22 11:52:10 51°21.633 2°58.441 37.6 4.5 47 15.7
2006-11-22 11:53:11 51°21.69 2°58.496 351.8 3.1 14 15.2
2006-11-22 11:54:11 51°21.734 2°58.501 312.6 2.1 351 16
2006-11-22 11:55:11 51°21.754 2°58.466 265.8 2 272 16.1
2006-11-22 11:56:11 51°21.732 2°58.401 249.3 3.3 241 15.9
2006-11-22 11:57:11 51°21.711 2°58.32 248.3 3.2 242 16.1
2006-11-22 11:58:11 51°21.671 2°58.244 242.8 3.8 234 15.9
2006-11-22 11:59:10 51°21.656 2°58.172 273.4 2.8 282 16.2
2006-11-22 12:00:11 51°21.704 2°58.116 315.7 4 336 16.4
2006-11-22 12:01:11 51°21.767 2°58.095 342.1 4.1 4 16.5
2006-11-22 12:02:11 51°21.828 2°58.159 43 4.8 51 17.1
2006-11-22 12:03:11 51°21.884 2°58.261 30.4 5 38 16.6
2006-11-22 12:04:11 51°21.947 2°58.304 340.6 3.5 8 17.1
2006-11-22 12:05:11 51°21.993 2°58.298 303.6 2.3 345 16.9
2006-11-22 12:06:10 51°22.014 2°58.282 262.2 0.5 303 17.1
2006-11-22 12:07:11 51°21.996 2°58.282 205.9 2.2 172 16.9
2006-11-22 12:08:10 51°21.951 2°58.271 229.8 2.7 215 17.5
2006-11-22 12:09:11 51°21.91 2°58.228 217.7 3.3 198 16.7
2006-11-22 12:10:11 51°21.846 2°58.225 210.4 3.8 191 16.8
2006-11-22 12:11:11 51°21.792 2°58.191 220.6 3.5 199 16.7
2006-11-22 12:12:11 51°21.736 2°58.17 212.2 3.4 190 16.4
2006-11-22 12:13:11 51°21.682 2°58.157 218.5 2.9 198 16.5
2006-11-22 12:14:11 51°21.658 2°58.108 257.6 2.9 265 16.4
2006-11-22 12:15:10 51°21.656 2°58.042 261.7 3.2 267 16.9
2006-11-22 12:16:10 51°21.664 2°57.976 295.1 3.1 316 16.7
2006-11-22 12:17:10 51°21.73 2°57.974 2.5 5 19 17
2006-11-22 12:18:11 51°21.794 2°58.075 65.9 5.2 62 17
2006-11-22 12:19:10 51°21.818 2°58.185 90.6 4 78 16.7
2006-11-22 12:20:11 51°21.83 2°58.281 100.8 3.5 77 16.6
2006-11-22 12:21:11 51°21.84 2°58.365 109.5 2.9 82 16.7
2006-11-22 12:22:11 51°21.844 2°58.441 123.8 2.7 82 16.6
2006-11-22 12:23:11 51°21.849 2°58.509 137.5 2.4 84 16.4
2006-11-22 12:24:10 51°21.851 2°58.574 150.5 2.8 101 16.5
2006-11-22 12:25:10 51°21.829 2°58.632 187.7 2.4 139 16.3
2006-11-22 12:26:11 51°21.801 2°58.653 223.6 1.5 181 16.2
2006-11-22 12:27:11 51°21.789 2°58.632 255.8 1.7 263 16
2006-11-22 12:28:10 51°21.771 2°58.569 244.3 3.3 240 16.1
2006-11-22 12:29:11 51°21.729 2°58.444 249 6.1 245 16.3
2006-11-22 12:30:11 51°21.685 2°58.284 248.9 5.9 246 16.3
2006-11-22 12:31:11 51°21.658 2°58.215 239.5 0.6 165 16.1
2006-11-22 12:32:10 51°21.659 2°58.242 231.2 0.8 95 16.5
2006-11-22 12:33:11 51°21.657 2°58.251 259.7 0.4 295 16.1
2006-11-22 12:34:11 51°21.659 2°58.226 258.3 1.6 267 16.4
2006-11-22 12:35:11 51°21.667 2°58.202 271.4 1 354 16.3
2006-11-22 12:36:11 51°21.682 2°58.219 281 1.3 43 16.4
2006-11-22 12:37:11 51°21.697 2°58.233 260.9 0.5 359 16.6
2006-11-22 12:38:11 51°21.692 2°58.22 240.3 1.1 219 16.3
2006-11-22 12:39:11 51°21.679 2°58.198 244.2 0.4 218 16.4
2006-11-22 12:40:11 51°21.675 2°58.195 252 0.1 317 16.5
2006-11-22 12:41:10 51°21.678 2°58.19 260.6 0.6 16 16.5
2006-11-22 12:42:11 51°21.686 2°58.201 256.5 0.8 50 16.4
2006-11-22 12:43:11 51°21.69 2°58.217 241.5 0.8 93 16.2
2006-11-22 12:44:11 51°21.672 2°58.208 234.2 1.7 216 16.6
2006-11-22 12:45:11 51°21.661 2°58.209 234.5 0.4 99 16.6
2006-11-22 12:46:11 51°21.656 2°58.217 236.6 0.4 162 16.2
2006-11-22 12:47:10 51°21.65 2°58.198 263.7 1 292 16.3
2006-11-22 12:48:11 51°21.663 2°58.196 275.8 1 14 16.5
2006-11-22 12:49:10 51°21.679 2°58.209 267.2 1.2 43 16.7
2006-11-22 12:50:11 51°21.692 2°58.217 264.1 1.8 280 16.6
2006-11-22 12:51:10 51°21.68 2°58.18 237 0.4 175 16.6
2006-11-22 12:52:11 51°21.68 2°58.208 226.1 1.3 93 16.6
2006-11-22 12:53:11 51°21.674 2°58.23 229.3 0.7 176 16.5
2006-11-22 12:54:11 51°21.666 2°58.214 242 0.5 208 16.3
2006-11-22 12:55:11 51°21.666 2°58.224 233.6 1.1 79 16.2
2006-11-22 12:56:11 51°21.665 2°58.248 228.9 0.8 98 16.2
2006-11-22 12:57:10 51°21.66 2°58.223 269.2 2.6 281 16.5
2006-11-22 12:58:11 51°21.689 2°58.162 285.2 1.7 347 16.6
2006-11-22 12:59:11 51°21.711 2°58.194 280.9 1.9 54 16.6
2006-11-22 13:00:11 51°21.732 2°58.244 301 2.1 55 16.6
2006-11-22 13:01:11 51°21.763 2°58.254 289.8 2.4 323 16.8
2006-11-22 13:02:11 51°21.746 2°58.192 226.5 3.9 210 16.7
2006-11-22 13:03:11 51°21.687 2°58.181 206.5 2.5 174 16.5
2006-11-22 13:04:11 51°21.67 2°58.206 217.6 1.1 101 16.5
2006-11-22 13:05:11 51°21.669 2°58.239 220.3 1.1 94 16.5
2006-11-22 13:06:11 51°21.66 2°58.239 250.1 1.3 251 16.3
2006-11-22 13:07:11 51°21.664 2°58.182 274.3 2.2 295 16.4
2006-11-22 13:08:11 51°21.677 2°58.152 255.3 0.7 324 16.6
2006-11-22 13:09:10 51°21.677 2°58.152 242.8 0.3 183 16.6
2006-11-22 13:10:10 51°21.674 2°58.152 230.8 0.5 112 16.4
2006-11-22 13:11:11 51°21.671 2°58.164 245.5 0.4 41 16.3
2006-11-22 13:12:10 51°21.674 2°58.173 236.6 0.4 93 16.6
2006-11-22 13:13:11 51°21.671 2°58.192 219.8 0.9 113 16.1
2006-11-22 13:14:11 51°21.664 2°58.207 233.9 0.2 196 16.2
2006-11-22 13:15:11 51°21.67 2°58.205 261.2 0.9 344 16.5
2006-11-22 13:16:11 51°21.687 2°58.183 268.5 1.3 338 16.4
2006-11-22 13:17:11 51°21.703 2°58.194 256.9 1.1 33 16.3
2006-11-22 13:18:10 51°21.714 2°58.207 239 0.4 64 16.6
2006-11-22 13:19:10 51°21.717 2°58.206 242.8 0.3 342 16.6
2006-11-22 13:20:11 51°21.722 2°58.204 245 0.5 267 16.4
2006-11-22 13:21:11 51°21.704 2°58.182 227.8 1.6 214 16.6
2006-11-22 13:22:11 51°21.689 2°58.168 234.1 0.4 180 16.4
2006-11-22 13:23:10 51°21.691 2°58.167 254.1 0.7 356 16.5
2006-11-22 13:24:11 51°21.704 2°58.167 248.1 0.9 13 16.5
2006-11-22 13:25:11 51°21.713 2°58.178 227.2 0.7 68 16.5
2006-11-22 13:26:11 51°21.711 2°58.187 225.5 0.3 156 16.7
2006-11-22 13:27:10 51°21.697 2°58.176 227.9 1.2 202 16.6
2006-11-22 13:28:11 51°21.69 2°58.17 236.4 0.3 24 16.4
2006-11-22 13:29:11 51°21.698 2°58.179 244.1 1 35 16.4
2006-11-22 13:30:11 51°21.718 2°58.202 258.6 1.8 34 16.4
2006-11-22 13:31:10 51°21.741 2°58.203 275.6 1.8 320 16.6
2006-11-22 13:32:11 51°21.762 2°58.146 262.5 1.7 291 16.6
2006-11-22 13:33:10 51°21.77 2°58.128 238.9 0.2 240 16.7
2006-11-22 13:34:11 51°21.768 2°58.143 217 0.8 93 16.7
2006-11-22 13:35:11 51°21.771 2°58.157 237.3 0.4 31 16.6
2006-11-22 13:36:11 51°21.775 2°58.169 222.4 0.8 77 16.7
2006-11-22 13:37:11 51°21.766 2°58.171 223.4 2 212 16.6
2006-11-22 13:38:11 51°21.744 2°58.127 238.3 1.3 245 16.7
2006-11-22 13:39:11 51°21.743 2°58.116 237.4 0.3 33 16.5
2006-11-22 13:40:11 51°21.747 2°58.126 223.9 0.5 98 16.6
2006-11-22 13:41:11 51°21.746 2°58.152 202.2 1.3 94 16.6
2006-11-22 13:42:11 51°21.742 2°58.165 240 0.6 265 16.8
2006-11-22 13:43:10 51°21.743 2°58.114 256.2 1.6 291 16.4
2006-11-22 13:44:11 51°21.762 2°58.113 271.6 1.5 4 16.7
2006-11-22 13:45:11 51°21.779 2°58.117 245.7 0.9 21 16.7
2006-11-22 13:46:11 51°21.788 2°58.13 217.4 0.8 63 16.5
2006-11-22 13:47:11 51°21.781 2°58.137 216.9 3.1 204 16.5
2006-11-22 13:48:11 51°21.682 2°58.011 223.2 10.2 220 16.7
2006-11-22 13:49:10 51°21.559 2°57.836 234.4 9.4 231 16.4
2006-11-22 13:50:10 51°21.476 2°57.638 239.1 7.5 237 16.3
2006-11-22 13:51:10 51°21.441 2°57.521 252.1 2.9 263 16.6
2006-11-22 13:52:10 51°21.453 2°57.486 270.8 1.4 331 16.8
2006-11-22 13:53:11 51°21.465 2°57.468 237 0.8 254 16.7
2006-11-22 13:54:11 51°21.454 2°57.469 215.9 0.5 156 16.6
2006-11-22 13:55:11 51°21.453 2°57.474 232.1 0.3 62 16.6
2006-11-22 13:56:11 51°21.454 2°57.485 217 0.4 80 16.7
2006-11-22 13:57:11 51°21.447 2°57.497 216.2 0.7 165 16.7
2006-11-22 13:58:11 51°21.442 2°57.491 228.4 0.1 201 16.5
2006-11-22 13:59:10 51°21.441 2°57.495 223.7 0.4 113 16.4
2006-11-22 14:00:10 51°21.435 2°57.491 226.9 1.2 223 16.4
2006-11-22 14:01:11 51°21.429 2°57.482 235.2 0.4 18 16.3
2006-11-22 14:02:10 51°21.436 2°57.482 232.7 0.4 7 16.5
2006-11-22 14:03:11 51°21.445 2°57.492 217.6 0.6 57 16.7
2006-11-22 14:04:11 51°21.445 2°57.509 209.7 0.7 86 16.5
2006-11-22 14:05:11 51°21.445 2°57.491 256.9 3.1 276 16.5
2006-11-22 14:06:11 51°21.468 2°57.407 273.2 1.9 307 16.5
2006-11-22 14:07:10 51°21.489 2°57.407 252.1 1.3 18 16.7
2006-11-22 14:08:10 51°21.504 2°57.415 226.4 0.5 28 16.8
2006-11-22 14:09:11 51°21.502 2°57.432 200.1 0.9 121 16.7
2006-11-22 14:10:11 51°21.499 2°57.447 219.9 0.2 100 16.7
2006-11-22 14:11:11 51°21.493 2°57.43 236.4 1.8 248 16.9
2006-11-22 14:12:11 51°21.488 2°57.394 234 1 263 16.7
2006-11-22 14:13:11 51°21.486 2°57.378 228.8 0.3 346 16.7
2006-11-22 14:14:09 51°21.491 2°57.38 226.5 0.5 352 16.6
2006-11-22 14:15:11 51°21.497 2°57.377 233.8 0.3 359 16.6
2006-11-22 14:16:11 51°21.503 2°57.371 238.9 0.7 309 16.9
2006-11-22 14:17:11 51°21.511 2°57.36 240.7 0.7 350 16.8
2006-11-22 14:18:11 51°21.524 2°57.356 243.9 0.8 3 16.6
2006-11-22 14:19:11 51°21.54 2°57.359 238.7 0.8 336 16.8
2006-11-22 14:20:11 51°21.543 2°57.367 210.7 0.5 93 17
2006-11-22 14:21:11 51°21.542 2°57.387 208.6 0.7 103 16.7
2006-11-22 14:22:10 51°21.528 2°57.379 226.4 1.6 226 16.8
2006-11-22 14:23:11 51°21.526 2°57.369 235.5 0.4 346 16.8
2006-11-22 14:24:11 51°21.535 2°57.371 226.1 0.6 40 16.9
2006-11-22 14:25:11 51°21.541 2°57.39 192.4 1.1 99 16.5
2006-11-22 14:26:10 51°21.498 2°57.448 178.8 4.4 164 16.7
2006-11-22 14:27:11 51°21.466 2°57.453 215.4 0.5 88 16.6
2006-11-22 14:28:11 51°21.478 2°57.466 243.7 1.2 33 16.4
2006-11-22 14:29:11 51°21.528 2°57.412 323.3 6.9 338 16.2
2006-11-22 14:30:10 51°21.682 2°57.485 31.8 11.7 30 17.2
2006-11-22 14:31:11 51°21.858 2°57.667 37.7 12.6 35 17.5
2006-11-22 14:32:10 51°22.009 2°57.889 51 12.8 47 17.6
2006-11-22 14:33:10 51°22.153 2°58.138 50.4 12.7 45 17.9
2006-11-22 14:34:11 51°22.311 2°58.372 41.3 12.6 37 18.1
2006-11-22 14:35:11 51°22.471 2°58.524 28.2 9.4 25 18.6
2006-11-22 14:36:10 51°22.587 2°58.627 31.3 7.2 31 19
2006-11-22 14:37:11 51°22.672 2°58.708 19.1 4.7 28 19.4
2006-11-22 14:38:11 51°22.699 2°58.752 356.4 1.9 63 19.5
2006-11-22 14:39:11 51°22.742 2°58.78 325.4 2.9 8 19.5
2006-11-22 14:40:12 51°22.768 2°58.828 315.7 2.3 55 -999
2006-11-22 14:41:11 51°22.804 2°58.839 287.5 2.4 334 19.7
2006-11-22 14:42:10 51°22.809 2°58.789 234.3 2.6 246 19.7
2006-11-22 14:43:10 51°22.766 2°58.747 217.7 4.3 214 19.6
2006-11-22 14:44:11 51°22.705 2°58.712 217.3 2.6 211 19.3
2006-11-22 14:45:11 51°22.702 2°58.698 241.5 0.6 347 19.2
2006-11-22 14:46:10 51°22.711 2°58.694 221.3 0.1 43 19.4
2006-11-22 14:47:11 51°22.712 2°58.715 182.9 1.3 92 19.2
2006-11-22 14:48:11 51°22.711 2°58.747 197.3 1 82 19.4
2006-11-22 14:49:11 51°22.705 2°58.749 223.2 2.3 223 19.2
2006-11-22 14:50:12 51°22.622 2°58.775 157.8 7.8 146 18.7
2006-11-22 14:51:10 51°22.505 2°58.924 153.2 9.8 141 17.5
2006-11-22 14:52:10 51°22.374 2°59.086 153.8 10.3 141 16.5
2006-11-22 14:53:11 51°22.256 2°59.252 155.6 7.8 146 15.8
2006-11-22 14:54:10 51°22.179 2°59.285 188 3.9 167 15.2
2006-11-22 14:55:10 51°22.129 2°59.301 203.5 2.3 195 15.2
2006-11-22 14:56:11 51°22.1 2°59.285 219.2 1.2 232 15.3
2006-11-22 14:57:11 51°22.108 2°59.277 251.4 1.2 5 15.1
2006-11-22 14:58:10 51°22.122 2°59.268 235.4 0.6 316 15
2006-11-22 14:59:11 51°22.126 2°59.267 208.4 0.3 45 15
2006-11-22 15:00:11 51°22.128 2°59.278 199 0.7 83 15
2006-11-22 15:01:11 51°22.129 2°59.302 180.4 1.2 75 15.1
2006-11-22 15:02:11 51°22.135 2°59.333 177.9 1.2 69 14.9
2006-11-22 15:03:11 51°22.143 2°59.365 176.2 1.2 67 15
2006-11-22 15:04:11 51°22.151 2°59.398 173.8 1.4 75 14.9
2006-11-22 15:05:10 51°22.151 2°59.43 181.6 1.6 151 14.7
2006-11-22 15:06:11 51°22.106 2°59.38 237.7 4.7 241 14.9
2006-11-22 15:07:10 51°22.072 2°59.238 245.3 6.3 250 14.8
2006-11-22 15:08:11 51°22.017 2°59.097 228.8 6.2 232 14.9
2006-11-22 15:09:11 51°21.993 2°58.99 271.9 3.5 292 15
2006-11-22 15:10:11 51°22.012 2°58.923 260.3 2 299 15.3
2006-11-22 15:11:11 51°22.029 2°58.907 248.7 1.2 337 15.3
2006-11-22 15:12:10 51°22.042 2°58.899 233.7 0.9 -999 15.2
2006-11-22 15:13:11 51°22.052 2°58.896 216.8 0.3 23 15.4
2006-11-22 15:14:11 51°22.047 2°58.901 189.2 1.9 173 15.3
2006-11-22 15:15:11 51°21.952 2°58.86 211 7.6 208 15.2
2006-11-22 15:16:11 51°21.845 2°58.716 227 9.1 228 15
2006-11-22 15:17:11 51°21.728 2°58.483 235.9 11.7 238 15
2006-11-22 15:18:11 51°21.624 2°58.213 240.9 12.2 240 14.9
2006-11-22 15:19:10 51°21.555 2°57.918 248.2 12.2 249 15.3
2006-11-22 15:20:10 51°21.49 2°57.649 244.2 8.2 245 15.3
2006-11-22 15:21:10 51°21.453 2°57.523 239.1 3.7 244 15.6
2006-11-22 15:22:11 51°21.453 2°57.495 230.3 0.8 359 15.5
2006-11-22 15:23:11 51°21.466 2°57.489 233.7 0.9 330 15.6
2006-11-22 15:24:10 51°21.475 2°57.484 223.5 0.6 7 15.5
2006-11-22 15:25:10 51°21.488 2°57.488 215.3 0.9 10 15.8
2006-11-22 15:26:11 51°21.504 2°57.492 219.1 1 8 15.7
2006-11-22 15:27:11 51°21.522 2°57.497 225.1 1 24 15.8
2006-11-22 15:28:10 51°21.539 2°57.498 228.2 1 356 15.8
2006-11-22 15:29:11 51°21.551 2°57.497 216.6 0.6 351 15.9
2006-11-22 15:30:10 51°21.557 2°57.502 191.2 0.5 55 15.7
2006-11-22 15:31:11 51°21.563 2°57.53 148 1.5 71 15.8
2006-11-22 15:32:10 51°21.57 2°57.628 103.8 6 92 15.5
2006-11-22 15:33:10 51°21.504 2°57.685 210.1 5.3 217 15.3
2006-11-22 15:34:10 51°21.44 2°57.533 231.7 7.8 229 15.4
2006-11-22 15:35:10 51°21.338 2°57.397 221.3 8 221 15.1
2006-11-22 15:36:10 51°21.242 2°57.255 225.7 6.9 224 15.1
2006-11-22 15:37:11 51°21.166 2°57.139 225.4 5.8 224 15
2006-11-22 15:38:10 51°21.102 2°57.035 226.2 5.5 226 14.9
2006-11-22 15:39:10 51°21.038 2°56.933 227.7 5.4 229 15
2006-11-22 15:40:10 51°20.977 2°56.829 226.1 5.5 227 14.8
2006-11-22 15:41:11 51°20.914 2°56.728 226.5 5.3 228 14.7
2006-11-22 15:42:11 51°20.851 2°56.628 226.1 5.3 222 14.8
2006-11-22 15:43:10 51°20.791 2°56.528 226.9 5.4 230 14.8
2006-11-22 15:44:10 51°20.728 2°56.427 225.7 5.4 226 14.5
2006-11-22 15:45:10 51°20.665 2°56.323 226.3 5.5 225 14.7
2006-11-22 15:46:10 51°20.601 2°56.217 225.7 5.6 227 14.5
2006-11-22 15:47:10 51°20.537 2°56.111 226.2 5.5 227 14.5
2006-11-22 15:48:11 51°20.474 2°56.004 225.1 5.4 226 14.4
2006-11-22 15:49:10 51°20.412 2°55.903 226.3 5.4 228 14.4
2006-11-22 15:50:11 51°20.348 2°55.794 227.1 5.6 229 14.4
2006-11-22 15:51:11 51°20.285 2°55.69 226.6 5.4 227 14.3
2006-11-22 15:52:10 51°20.225 2°55.586 227.6 5.4 226 14.3
2006-11-22 15:53:10 51°20.163 2°55.482 226.4 5.5 226 14.3
2006-11-22 15:54:10 51°20.101 2°55.374 226 5.5 226 14.2
2006-11-22 15:55:11 51°20.037 2°55.265 225.2 5.6 226 14.2
2006-11-22 15:56:10 51°19.973 2°55.157 227.7 5.7 232 14
2006-11-22 15:57:11 51°19.908 2°55.045 227.3 5.7 232 13.9
2006-11-22 15:58:11 51°19.845 2°54.933 226 5.6 227 14
2006-11-22 15:59:11 51°19.782 2°54.821 226.7 5.6 228 13.8
2006-11-22 16:00:10 51°19.719 2°54.716 225.7 5.5 227 13.9
2006-11-22 16:01:11 51°19.656 2°54.603 226.5 5.6 228 13.8
2006-11-22 16:02:10 51°19.593 2°54.491 226.7 5.8 230 13.6
2006-11-22 16:03:11 51°19.529 2°54.376 226.8 5.6 229 13.6
2006-11-22 16:04:11 51°19.465 2°54.265 225.8 5.7 228 13.4
2006-11-22 16:05:10 51°19.403 2°54.156 223.6 5.7 228 13.5
2006-11-22 16:06:11 51°19.335 2°54.05 221.7 5.6 225 13.4
2006-11-22 16:07:11 51°19.269 2°53.944 224.2 5.7 227 13.3
2006-11-22 16:08:10 51°19.204 2°53.839 223.2 5.6 225 13.1
2006-11-22 16:09:10 51°19.139 2°53.731 224.6 5.7 227 13.3
2006-11-22 16:10:11 51°19.071 2°53.622 221.5 5.6 223 13.1
2006-11-22 16:11:10 51°19.003 2°53.52 220.6 5.7 219 13.2
2006-11-22 16:12:11 51°18.934 2°53.415 220.6 5.5 224 13.1
2006-11-22 16:13:11 51°18.867 2°53.315 221.3 5.6 226 12.8
2006-11-22 16:14:10 51°18.8 2°53.212 219.7 5.7 222 12.7
2006-11-22 16:15:10 51°18.73 2°53.115 214.9 5.5 216 12.6
2006-11-22 16:16:10 51°18.654 2°53.031 212.4 5.5 216 12.4
2006-11-22 16:17:10 51°18.575 2°52.953 209 5.5 211 12.6
2006-11-22 16:18:10 51°18.493 2°52.882 206.6 5.6 208 12.2
2006-11-22 16:19:10 51°18.411 2°52.811 207.6 5.6 211 12.2
2006-11-22 16:20:11 51°18.328 2°52.736 208.2 5.6 208 12
2006-11-22 16:21:11 51°18.244 2°52.667 202.1 5.7 203 12.1
2006-11-22 16:22:11 51°18.148 2°52.616 195.8 6.7 195 11.7
2006-11-22 16:23:11 51°18.028 2°52.583 188.2 7.6 188 11.5
2006-11-22 16:24:10 51°17.906 2°52.56 187.8 7.5 186 11.4
2006-11-22 16:25:11 51°17.777 2°52.535 188.6 7.6 188 11
2006-11-22 16:26:11 51°17.651 2°52.502 190.1 7.6 192 11.2
2006-11-22 16:27:11 51°17.525 2°52.469 190.1 7.7 190 11.2
2006-11-22 16:28:11 51°17.399 2°52.436 190.3 7.7 190 11.2
2006-11-22 16:29:11 51°17.272 2°52.405 189.2 7.9 189 11
2006-11-22 16:30:10 51°17.148 2°52.384 180.3 7.2 174 10.9
2006-11-22 16:31:10 51°17.043 2°52.481 151.9 7.7 146 10.6
2006-11-22 16:32:11 51°16.926 2°52.561 164.8 7.5 162 10.8
2006-11-22 16:33:11 51°16.802 2°52.625 165.4 7.8 162 10.7
2006-11-22 16:34:11 51°16.674 2°52.692 165.3 8.5 163 11.6
2006-11-22 16:35:11 51°16.538 2°52.763 165.3 8.6 160 12.3
2006-11-22 16:36:10 51°16.401 2°52.83 166.4 8.7 164 12.7
2006-11-22 16:37:11 51°16.258 2°52.899 164.7 8.6 162 12.7
2006-11-22 16:38:11 51°16.117 2°52.965 165.4 8.8 163 12.6
2006-11-22 16:39:11 51°15.975 2°53.03 165 8.8 162 12.5
2006-11-22 16:40:10 51°15.837 2°53.095 164.7 8.7 164 12.2
2006-11-22 16:41:11 51°15.706 2°53.156 165.4 7.8 164 11.9
2006-11-22 16:42:10 51°15.584 2°53.211 164.7 7.8 164 11.5
2006-11-22 16:43:11 51°15.461 2°53.272 160.2 7.5 158 11.2
2006-11-22 16:44:10 51°15.352 2°53.367 151 7.8 148 10.8
2006-11-22 16:45:10 51°15.224 2°53.498 146 10 142 10.4
2006-11-22 16:46:11 51°15.076 2°53.672 144.4 11.5 143 9.8
2006-11-22 16:47:11 51°14.932 2°53.872 140.9 11.9 138 9.5
2006-11-22 16:48:11 51°14.784 2°54.095 136.7 12.9 133 10.1
2006-11-22 16:49:10 51°14.648 2°54.357 131.1 13 129 10.3
2006-11-22 16:50:11 51°14.511 2°54.631 128.8 13.1 126 10.9
2006-11-22 16:51:11 51°14.4 2°54.918 120.5 12.6 119 10.6
2006-11-22 16:52:11 51°14.295 2°55.19 129.7 10.6 127 10.3
2006-11-22 16:53:09 51°14.196 2°55.349 144 7.7 142 10.9
2006-11-22 16:54:10 51°14.095 2°55.437 158.1 6.1 156 10.8
2006-11-22 16:55:10 51°14.009 2°55.499 159.1 5.4 156 10
2006-11-22 16:56:10 51°13.928 2°55.558 159.4 5.4 156 10.9
2006-11-22 16:57:12 51°13.843 2°55.617 159.7 5.4 156 10.2
2006-11-22 16:58:13 51°13.768 2°55.691 141 5 139 -999
2006-11-22 16:59:13 51°13.711 2°55.785 134.4 4.9 131 -999
2006-11-22 17:00:15 51°13.662 2°55.892 126.2 4.8 123 -999
2006-11-22 17:01:15 51°13.627 2°55.996 119.8 4.2 116 -999
2006-11-22 17:02:15 51°13.603 2°56.079 121 1.7 118 -999